Initiator D — V7LL8 — position and weather

sailwx.info

Track history (hours):
 
Tides and Currents Weather Stations Pressure Air Temp Water Temp Dewpoint Dewpoint Depression Visibility Wind Speed Wind Dir Waves Ship Positions

Initiator D

Last reported at 2017-Nov-17 09:56 UTC. Time now 2017-Nov-25 09:53 UTC.
Position N 35°59' W 005°11'.

Length 190 m; draft 10.3 m.

Type: Ship. MMSI: 538006296.

Date/timePositionNaut miles runAvg speedWind from/ knotsBaromVisibWave heightAir tempDewpointWater temp
2017-Nov-17 09:56N 35°59' W 005°11'613.5
2017-Nov-17 09:31N 35°58' W 005°18'713.6
2017-Nov-17 09:01N 35°57' W 005°26'58512.2
2017-Nov-15 09:10N 29°20' W 013°57'311.7
2017-Nov-15 08:56N 29°18' W 013°59'4211.7
2017-Nov-15 05:19N 28°44' W 014°28'411.7
2017-Nov-15 05:00N 28°41' W 014°31'611.8
2017-Nov-15 04:30N 28°37' W 014°35'611.7
2017-Nov-15 04:01N 28°32' W 014°39'611.6
2017-Nov-15 03:30N 28°27' W 014°43'611.7
2017-Nov-15 03:00N 28°23' W 014°47'611.4
2017-Nov-15 02:31N 28°18' W 014°50'611.4
2017-Nov-15 02:01N 28°13' W 014°53'5 9.9
2017-Nov-15 01:30N 28°10' W 014°57'611.8
2017-Nov-15 01:00N 28°09' W 015°04'611.8
2017-Nov-15 00:31N 28°08' W 015°10'611.8
2017-Nov-15 00:01N 28°07' W 015°17'5 9.5
2017-Nov-14 23:30N 28°07' W 015°22'2 3.0
2017-Nov-14 22:53N 28°07' W 015°25'0 0.0
2017-Nov-14 22:26N 28°07' W 015°25'0 0.0
2017-Nov-14 21:56N 28°07' W 015°25'0 0.1
2017-Nov-14 21:26N 28°07' W 015°25'0 0.0
2017-Nov-14 20:56N 28°07' W 015°25'0 0.0
2017-Nov-14 20:26N 28°07' W 015°25'0 0.0
2017-Nov-14 19:56N 28°07' W 015°25'0 0.0
2017-Nov-14 19:29N 28°07' W 015°25'0 0.0
2017-Nov-14 18:59N 28°07' W 015°25'0 0.0
2017-Nov-14 18:29N 28°07' W 015°25'0 0.0
2017-Nov-14 17:59N 28°07' W 015°25'0 0.0
2017-Nov-14 17:29N 28°07' W 015°25'0 0.0
2017-Nov-14 16:59N 28°07' W 015°25'0 0.0
2017-Nov-14 16:29N 28°07' W 015°25'0 0.4
2017-Nov-14 16:00N 28°07' W 015°24'1 2.2
2017-Nov-14 15:31N 28°07' W 015°23'0 0.6
2017-Nov-14 15:01N 28°07' W 015°23'3 5.7
2017-Nov-14 14:31N 28°08' W 015°20'4 8.7
2017-Nov-14 14:01N 28°07' W 015°15'612.4
2017-Nov-14 13:31N 28°07' W 015°08'612.4
2017-Nov-14 13:00N 28°07' W 015°01'510.2
2017-Nov-14 12:31N 28°04' W 014°56'612.1
2017-Nov-14 12:01N 27°59' W 014°58'612.1
2017-Nov-14 11:30N 27°53' W 015°01'612.1
2017-Nov-14 11:00N 27°47' W 015°03'612.0
2017-Nov-14 10:30N 27°42' W 015°05'611.9
2017-Nov-14 10:00N 27°36' W 015°08'611.5
2017-Nov-14 09:31N 27°31' W 015°10'  
2017-Nov-10 07:56N 09°24' W 014°51'712.6
2017-Nov-10 07:25N 09°23' W 014°44'812.6
2017-Nov-10 06:45N 09°22' W 014°36'312.5
2017-Nov-10 06:30N 09°22' W 014°33'612.6
2017-Nov-10 06:00N 09°21' W 014°26'612.6
2017-Nov-10 05:31N 09°21' W 014°20'612.8
2017-Nov-10 05:01N 09°21' W 014°14'613.0
2017-Nov-10 04:31N 09°21' W 014°07'713.0
2017-Nov-10 04:00N 09°21' W 014°00'612.7
2017-Nov-10 03:31N 09°21' W 013°54'611.7
2017-Nov-10 03:01N 09°21' W 013°48'5 9.9
2017-Nov-10 02:30N 09°25' W 013°45'3 5.7
2017-Nov-10 02:01N 09°27' W 013°44'3 7.0
2017-Nov-10 01:30N 09°31' W 013°43'1 1.7
2017-Nov-10 01:00N 09°31' W 013°43'0 0.0
2017-Nov-10 00:29N 09°31' W 013°43'0 0.0
2017-Nov-09 23:59N 09°31' W 013°43'0 0.0
2017-Nov-09 23:29N 09°31' W 013°43'0 0.0
2017-Nov-09 22:59N 09°31' W 013°43'0 0.0
2017-Nov-09 22:29N 09°31' W 013°43'0 0.0
2017-Nov-09 21:59N 09°31' W 013°43'0 0.0
2017-Nov-09 21:26N 09°31' W 013°43'0 0.0
2017-Nov-09 20:59N 09°31' W 013°43'0 0.0
2017-Nov-09 20:29N 09°31' W 013°43'0 0.0
2017-Nov-09 19:59N 09°31' W 013°43'0 0.0
2017-Nov-09 19:29N 09°31' W 013°43'0 0.0
2017-Nov-09 18:59N 09°31' W 013°43'0 0.0
2017-Nov-09 18:29N 09°31' W 013°43'0 0.0
2017-Nov-09 17:59N 09°31' W 013°43'0 0.0
2017-Nov-09 17:29N 09°31' W 013°43'0 0.0
2017-Nov-09 16:59N 09°31' W 013°43'0 0.0
2017-Nov-09 16:29N 09°31' W 013°43'0 0.0
2017-Nov-09 15:59N 09°31' W 013°43'0 0.0
2017-Nov-09 15:29N 09°31' W 013°43'0 0.0
2017-Nov-09 14:59N 09°31' W 013°43'0 0.0
2017-Nov-09 14:29N 09°31' W 013°43'0 0.0
2017-Nov-09 14:00N 09°31' W 013°43'0 0.0
2017-Nov-09 13:29N 09°31' W 013°43'0 0.0
2017-Nov-09 12:59N 09°31' W 013°43'0 0.0
2017-Nov-09 12:29N 09°31' W 013°43'0 0.0
2017-Nov-09 11:59N 09°31' W 013°43'0 0.0
2017-Nov-09 11:29N 09°31' W 013°43'0 0.0
2017-Nov-09 10:59N 09°31' W 013°43'0 0.0
2017-Nov-09 10:29N 09°31' W 013°43'0 0.0
2017-Nov-09 09:59N 09°31' W 013°43'0 0.0
2017-Nov-09 09:29N 09°31' W 013°43'0 0.0
2017-Nov-09 08:59N 09°31' W 013°43'0 0.0
2017-Nov-09 08:29N 09°31' W 013°43'0 0.0
2017-Nov-09 07:59N 09°31' W 013°43'0 0.0
2017-Nov-09 07:29N 09°31' W 013°43'0 0.0
2017-Nov-09 06:59N 09°31' W 013°43'0 0.0
2017-Nov-09 06:29N 09°31' W 013°43'0 0.0
2017-Nov-09 05:59N 09°31' W 013°43'0 0.0
2017-Nov-09 05:29N 09°31' W 013°43'0 0.0
2017-Nov-09 04:59N 09°31' W 013°43'0 0.0
2017-Nov-09 04:29N 09°31' W 013°43'0 0.0
2017-Nov-09 03:59N 09°31' W 013°43'0 0.0
2017-Nov-09 03:29N 09°31' W 013°43'0 0.0
2017-Nov-09 02:59N 09°31' W 013°43'0 0.0
2017-Nov-09 02:29N 09°31' W 013°43'0 0.0
2017-Nov-09 01:59N 09°31' W 013°43'0 0.0
2017-Nov-09 01:29N 09°31' W 013°43'0 0.0
2017-Nov-09 00:59N 09°31' W 013°43'0 0.0
2017-Nov-09 00:29N 09°31' W 013°43'0 0.0
2017-Nov-08 23:59N 09°31' W 013°43'0 0.0
2017-Nov-08 23:29N 09°31' W 013°43'0 0.0
2017-Nov-08 22:56N 09°31' W 013°43'0 0.0
2017-Nov-08 22:29N 09°31' W 013°43'0 0.0
2017-Nov-08 13:26N 09°31' W 013°43'0 0.0
2017-Nov-08 12:59N 09°31' W 013°43'0 0.0
2017-Nov-08 01:02N 09°31' W 013°43'0 0.0
2017-Nov-08 00:59N 09°31' W 013°43'0 0.0
2017-Nov-08 00:29N 09°31' W 013°43'0 0.0
2017-Nov-07 23:59N 09°31' W 013°43'0 0.0
2017-Nov-07 23:29N 09°31' W 013°43'0 0.0
2017-Nov-07 22:59N 09°31' W 013°43'0 0.0
2017-Nov-07 22:29N 09°31' W 013°43'0 0.0
2017-Nov-07 21:59N 09°31' W 013°43'0 0.0
2017-Nov-07 21:29N 09°31' W 013°43'0 0.0
2017-Nov-07 20:59N 09°31' W 013°43'0 0.0
2017-Nov-07 20:29N 09°31' W 013°43'0 0.0
2017-Nov-07 19:59N 09°31' W 013°43'0 0.0
2017-Nov-07 19:29N 09°31' W 013°43'0 0.0
2017-Nov-07 18:59N 09°31' W 013°43'0 0.0
2017-Nov-07 18:30N 09°31' W 013°43'0 0.0
2017-Nov-07 17:59N 09°31' W 013°43'0 0.1
2017-Nov-07 17:29N 09°31' W 013°43'0 0.1
2017-Nov-07 16:59N 09°31' W 013°43'0 0.0
2017-Nov-07 16:29N 09°31' W 013°43'0 0.0
2017-Nov-07 15:59N 09°31' W 013°43'0 0.0
2017-Nov-07 15:23N 09°31' W 013°43'0 0.0
2017-Nov-07 14:59N 09°31' W 013°43'0 0.0
2017-Nov-07 14:29N 09°31' W 013°43'0 0.0
2017-Nov-07 13:59N 09°31' W 013°43'0 0.0
2017-Nov-07 13:29N 09°31' W 013°43'0 0.0
2017-Nov-07 12:59N 09°31' W 013°43'0 0.0
2017-Nov-07 12:29N 09°31' W 013°43'0 0.0
2017-Nov-07 11:59N 09°31' W 013°43'  
Track history (hours):
 
Tides and Currents Weather Stations Pressure Air Temp Water Temp Dewpoint Dewpoint Depression Visibility Wind Speed Wind Dir Waves Ship Positions

Initiator D

Last reported at 2017-Nov-17 09:56 UTC. Time now 2017-Nov-25 09:53 UTC.
Position N 35°59' W 005°11'.

Length 190 m; draft 10.3 m.

Type: Ship. MMSI: 538006296.

Date/timePositionNaut miles runAvg speedWind from/ knotsBaromVisibWave heightAir tempDewpointWater temp
2017-Nov-17 09:56N 35°59' W 005°11'613.5
2017-Nov-17 09:31N 35°58' W 005°18'713.6
2017-Nov-17 09:01N 35°57' W 005°26'58512.2
2017-Nov-15 09:10N 29°20' W 013°57'311.7
2017-Nov-15 08:56N 29°18' W 013°59'4211.7
2017-Nov-15 05:19N 28°44' W 014°28'411.7
2017-Nov-15 05:00N 28°41' W 014°31'611.8
2017-Nov-15 04:30N 28°37' W 014°35'611.7
2017-Nov-15 04:01N 28°32' W 014°39'611.6
2017-Nov-15 03:30N 28°27' W 014°43'611.7
2017-Nov-15 03:00N 28°23' W 014°47'611.4
2017-Nov-15 02:31N 28°18' W 014°50'611.4
2017-Nov-15 02:01N 28°13' W 014°53'5 9.9
2017-Nov-15 01:30N 28°10' W 014°57'611.8
2017-Nov-15 01:00N 28°09' W 015°04'611.8
2017-Nov-15 00:31N 28°08' W 015°10'611.8
2017-Nov-15 00:01N 28°07' W 015°17'5 9.5
2017-Nov-14 23:30N 28°07' W 015°22'2 3.0
2017-Nov-14 22:53N 28°07' W 015°25'0 0.0
2017-Nov-14 22:26N 28°07' W 015°25'0 0.0
2017-Nov-14 21:56N 28°07' W 015°25'0 0.1
2017-Nov-14 21:26N 28°07' W 015°25'0 0.0
2017-Nov-14 20:56N 28°07' W 015°25'0 0.0
2017-Nov-14 20:26N 28°07' W 015°25'0 0.0
2017-Nov-14 19:56N 28°07' W 015°25'0 0.0
2017-Nov-14 19:29N 28°07' W 015°25'0 0.0
2017-Nov-14 18:59N 28°07' W 015°25'0 0.0
2017-Nov-14 18:29N 28°07' W 015°25'0 0.0
2017-Nov-14 17:59N 28°07' W 015°25'0 0.0
2017-Nov-14 17:29N 28°07' W 015°25'0 0.0
2017-Nov-14 16:59N 28°07' W 015°25'0 0.0
2017-Nov-14 16:29N 28°07' W 015°25'0 0.4
2017-Nov-14 16:00N 28°07' W 015°24'1 2.2
2017-Nov-14 15:31N 28°07' W 015°23'0 0.6
2017-Nov-14 15:01N 28°07' W 015°23'3 5.7
2017-Nov-14 14:31N 28°08' W 015°20'4 8.7
2017-Nov-14 14:01N 28°07' W 015°15'612.4
2017-Nov-14 13:31N 28°07' W 015°08'612.4
2017-Nov-14 13:00N 28°07' W 015°01'510.2
2017-Nov-14 12:31N 28°04' W 014°56'612.1
2017-Nov-14 12:01N 27°59' W 014°58'612.1
2017-Nov-14 11:30N 27°53' W 015°01'612.1
2017-Nov-14 11:00N 27°47' W 015°03'612.0
2017-Nov-14 10:30N 27°42' W 015°05'611.9
2017-Nov-14 10:00N 27°36' W 015°08'611.5
2017-Nov-14 09:31N 27°31' W 015°10'  
2017-Nov-10 07:56N 09°24' W 014°51'712.6
2017-Nov-10 07:25N 09°23' W 014°44'812.6
2017-Nov-10 06:45N 09°22' W 014°36'312.5
2017-Nov-10 06:30N 09°22' W 014°33'612.6
2017-Nov-10 06:00N 09°21' W 014°26'612.6
2017-Nov-10 05:31N 09°21' W 014°20'612.8
2017-Nov-10 05:01N 09°21' W 014°14'613.0
2017-Nov-10 04:31N 09°21' W 014°07'713.0
2017-Nov-10 04:00N 09°21' W 014°00'612.7
2017-Nov-10 03:31N 09°21' W 013°54'611.7
2017-Nov-10 03:01N 09°21' W 013°48'5 9.9
2017-Nov-10 02:30N 09°25' W 013°45'3 5.7
2017-Nov-10 02:01N 09°27' W 013°44'3 7.0
2017-Nov-10 01:30N 09°31' W 013°43'1 1.7
2017-Nov-10 01:00N 09°31' W 013°43'0 0.0
2017-Nov-10 00:29N 09°31' W 013°43'0 0.0
2017-Nov-09 23:59N 09°31' W 013°43'0 0.0
2017-Nov-09 23:29N 09°31' W 013°43'0 0.0
2017-Nov-09 22:59N 09°31' W 013°43'0 0.0
2017-Nov-09 22:29N 09°31' W 013°43'0 0.0
2017-Nov-09 21:59N 09°31' W 013°43'0 0.0
2017-Nov-09 21:26N 09°31' W 013°43'0 0.0
2017-Nov-09 20:59N 09°31' W 013°43'0 0.0
2017-Nov-09 20:29N 09°31' W 013°43'0 0.0
2017-Nov-09 19:59N 09°31' W 013°43'0 0.0
2017-Nov-09 19:29N 09°31' W 013°43'0 0.0
2017-Nov-09 18:59N 09°31' W 013°43'0 0.0
2017-Nov-09 18:29N 09°31' W 013°43'0 0.0
2017-Nov-09 17:59N 09°31' W 013°43'0 0.0
2017-Nov-09 17:29N 09°31' W 013°43'0 0.0
2017-Nov-09 16:59N 09°31' W 013°43'0 0.0
2017-Nov-09 16:29N 09°31' W 013°43'0 0.0
2017-Nov-09 15:59N 09°31' W 013°43'0 0.0
2017-Nov-09 15:29N 09°31' W 013°43'0 0.0
2017-Nov-09 14:59N 09°31' W 013°43'0 0.0
2017-Nov-09 14:29N 09°31' W 013°43'0 0.0
2017-Nov-09 14:00N 09°31' W 013°43'0 0.0
2017-Nov-09 13:29N 09°31' W 013°43'0 0.0
2017-Nov-09 12:59N 09°31' W 013°43'0 0.0
2017-Nov-09 12:29N 09°31' W 013°43'0 0.0
2017-Nov-09 11:59N 09°31' W 013°43'0 0.0
2017-Nov-09 11:29N 09°31' W 013°43'0 0.0
2017-Nov-09 10:59N 09°31' W 013°43'0 0.0
2017-Nov-09 10:29N 09°31' W 013°43'0 0.0
2017-Nov-09 09:59N 09°31' W 013°43'0 0.0
2017-Nov-09 09:29N 09°31' W 013°43'0 0.0
2017-Nov-09 08:59N 09°31' W 013°43'0 0.0
2017-Nov-09 08:29N 09°31' W 013°43'0 0.0
2017-Nov-09 07:59N 09°31' W 013°43'0 0.0
2017-Nov-09 07:29N 09°31' W 013°43'0 0.0
2017-Nov-09 06:59N 09°31' W 013°43'0 0.0
2017-Nov-09 06:29N 09°31' W 013°43'0 0.0
2017-Nov-09 05:59N 09°31' W 013°43'0 0.0
2017-Nov-09 05:29N 09°31' W 013°43'0 0.0
2017-Nov-09 04:59N 09°31' W 013°43'0 0.0
2017-Nov-09 04:29N 09°31' W 013°43'0 0.0
2017-Nov-09 03:59N 09°31' W 013°43'0 0.0
2017-Nov-09 03:29N 09°31' W 013°43'0 0.0
2017-Nov-09 02:59N 09°31' W 013°43'0 0.0
2017-Nov-09 02:29N 09°31' W 013°43'0 0.0
2017-Nov-09 01:59N 09°31' W 013°43'0 0.0
2017-Nov-09 01:29N 09°31' W 013°43'0 0.0
2017-Nov-09 00:59N 09°31' W 013°43'0 0.0
2017-Nov-09 00:29N 09°31' W 013°43'0 0.0
2017-Nov-08 23:59N 09°31' W 013°43'0 0.0
2017-Nov-08 23:29N 09°31' W 013°43'0 0.0
2017-Nov-08 22:56N 09°31' W 013°43'0 0.0
2017-Nov-08 22:29N 09°31' W 013°43'0 0.0
2017-Nov-08 13:26N 09°31' W 013°43'0 0.0
2017-Nov-08 12:59N 09°31' W 013°43'0 0.0
2017-Nov-08 01:02N 09°31' W 013°43'0 0.0
2017-Nov-08 00:59N 09°31' W 013°43'0 0.0
2017-Nov-08 00:29N 09°31' W 013°43'0 0.0
2017-Nov-07 23:59N 09°31' W 013°43'0 0.0
2017-Nov-07 23:29N 09°31' W 013°43'0 0.0
2017-Nov-07 22:59N 09°31' W 013°43'0 0.0
2017-Nov-07 22:29N 09°31' W 013°43'0 0.0
2017-Nov-07 21:59N 09°31' W 013°43'0 0.0
2017-Nov-07 21:29N 09°31' W 013°43'0 0.0
2017-Nov-07 20:59N 09°31' W 013°43'0 0.0
2017-Nov-07 20:29N 09°31' W 013°43'0 0.0
2017-Nov-07 19:59N 09°31' W 013°43'0 0.0
2017-Nov-07 19:29N 09°31' W 013°43'0 0.0
2017-Nov-07 18:59N 09°31' W 013°43'0 0.0
2017-Nov-07 18:30N 09°31' W 013°43'0 0.0
2017-Nov-07 17:59N 09°31' W 013°43'0 0.1
2017-Nov-07 17:29N 09°31' W 013°43'0 0.1
2017-Nov-07 16:59N 09°31' W 013°43'0 0.0
2017-Nov-07 16:29N 09°31' W 013°43'0 0.0
2017-Nov-07 15:59N 09°31' W 013°43'0 0.0
2017-Nov-07 15:23N 09°31' W 013°43'0 0.0
2017-Nov-07 14:59N 09°31' W 013°43'0 0.0
2017-Nov-07 14:29N 09°31' W 013°43'0 0.0
2017-Nov-07 13:59N 09°31' W 013°43'0 0.0
2017-Nov-07 13:29N 09°31' W 013°43'0 0.0
2017-Nov-07 12:59N 09°31' W 013°43'0 0.0
2017-Nov-07 12:29N 09°31' W 013°43'0 0.0
2017-Nov-07 11:59N 09°31' W 013°43'  

Dump ship's entire track history